AirNav   Air Wisconsin pilot careers
 
 1117 users online  

KSQL San Carlos Airport
San Carlos, California, USA

GOING TO SAN CARLOS?


FAA INFORMATION EFFECTIVE 19 JULY 2018

Location

FAA Identifier: SQL
Lat/Long: 37-30-42.6777N / 122-14-58.2846W
37-30.711295N / 122-14.971410W
37.5118549 / -122.2495235
(estimated)
Elevation: 5.1 ft. / 1.6 m (surveyed)
Variation: 15E (2000)
From city: 2 miles NE of SAN CARLOS, CA
Time zone: UTC -7 (UTC -8 during Standard Time)
Zip code: 94070

Airport Operations

Airport use: Open to the public
Activation date: 07/1952
Control tower: yes
ARTCC: OAKLAND CENTER
FSS: OAKLAND FLIGHT SERVICE STATION
NOTAMs facility: SQL (NOTAM-D service available)
Attendance: 0600-2200
Pattern altitude: 805.1 ft. MSL
Wind indicator: lighted
Segmented circle: yes
Lights: WHEN ATCT CLSD; ACTVT MIRL RWY 12/30 & REIL RWY 12/30 - 119.0
Beacon: white-green (lighted land airport)
Operates sunset to sunrise.

Airport Communications

CTAF: 119.0
UNICOM: 122.95
ATIS: 125.9
WX AWOS-3P: 125.9 (650-593-0613)
SAN CARLOS GROUND: 121.6 [0700-2100]
SAN CARLOS TOWER: 119.0 326.2 [0700-2100]
NORCAL APPROACH: 133.95 135.65
NORCAL DEPARTURE: 135.65
WX ASOS at SFO (9 nm NW): PHONE 650-872-0246
WX ASOS at HWD (11 nm NE): PHONE 510-786-3052
WX ASOS at NUQ (11 nm SE): 124.175 or 283.0 (650-604-1529)
WX AWOS-3 at HAF (12 nm W): 127.275 (650-728-5649)
WX ASOS at OAK (13 nm N): PHONE 510-214-1776
WX AWOS-AV at 18CN (17 nm NW): 119.925 (415-514-4209)
WX ASOS at SJC (18 nm SE): 126.95 (408-969-0838)
  • FREQ 121.5 NOT AVAILABLE.

Nearby radio navigation aids

VOR radial/distance  VOR name  Freq  Var
OSIr355/7.3WOODSIDE VOR/DME113.9017E
SFOr121/8.8SAN FRANCISCO VOR/DME115.8017E
OAKr168/12.9OAKLAND VOR/DME116.8017E
SJCr284/16.7SAN JOSE VOR/DME114.1016E
SAUr131/24.4SAUSALITO VOR/DME116.2017E
CCRr180/33.4CONCORD VOR/DME117.0017E

 
NDB name  Hdg/Dist  Freq  Var  ID
TRACY239/39.820315ETCY - -.-. -.--

Airport Services

Fuel available: 100LL JET-A JET-A+ MOGAS UL94
Parking: tiedowns
Airframe service: MAJOR
Powerplant service: MAJOR
Bottled oxygen: NONE
Bulk oxygen: NONE

Runway Information

Runway 12/30

Dimensions: 2600 x 75 ft. / 792 x 23 m
Surface: asphalt, in good condition
Weight bearing capacity: 
Single wheel: 12.5
Runway edge lights: medium intensity
RUNWAY 12  RUNWAY 30
Latitude: 37-30.870417N37-30.552170N
Longitude: 122-15.151435W122-14.791398W
Elevation: 4.8 ft.4.9 ft.
Traffic pattern: leftright
Runway heading: 123 magnetic, 138 true303 magnetic, 318 true
Markings: nonprecision, in good conditionnonprecision, in good condition
Visual slope indicator: 2-box VASI on left (3.00 degrees glide path)2-box VASI on left (3.00 degrees glide path)
Runway end identifier lights: yesyes
Touchdown point: yes, no lightsyes, no lights
Obstructions: 18 ft. pole, 565 ft. from runway, 80 ft. right of centerline, 20:1 slope to clearnone
7' LGTD DIKE 100' E OF CNTRLN AT THR, EXTENDING TO 60' E OF CNTRLN AT END OF PRIMARY SFC.

Airport Ownership and Management from official FAA records

Ownership: Publicly-owned
Owner: SAN MATEO COUNTY
555 COUNTY CENTER, 5TH FLOOR
REDWOOD CITY, CA 94063-1665
Phone 650-573-3700
DIRECTOR OF PUBLIC WORKS - JAMES PORTER.
Manager: GRETCHEN KELLY
620 AIRPORT DR
SAN CARLOS, CA 94070
Phone 650-573-3700

Airport Operational Statistics

Aircraft based on the field: 269
Single engine airplanes: 231
Multi engine airplanes: 27
Jet airplanes: 1
Helicopters: 10
    
Aircraft operations: avg 296/day *
44% local general aviation
38% transient general aviation
18% air taxi
<1% military
* for 12-month period ending 20 June 2017

Additional Remarks

FOR CD WHEN ATCT IS CLSD CTC NORCAL APCH AT 916-361-3829.
RABBIT AVIATION 130.00
LRG HEL SHOULD AVOID OVERFLIGHT OF DIRT INFIELD AREAS.
NO TGL OR STOP AND GO LDGS WHEN ATCT CLSD.
CALM WIND RWY 12.
NOISE SENSITIVE AREAS S THRU NE OF ARPT. FOR NOISE ABATEMENT PROCEDURES CTC AMGR (650) 573-3700.
MIGRATORY BIRD ACT ON & INVOF OF ARPT.
100 FT STEEL TRANSMISSION TWRS AND POWERLINES LCTD 750 FT WEST AND PARALLEL TO RWY 12/30.
7 FT LIGHTED DIKE LCTD IN RWY SAFETY AREA ON APCH END RWY 30.
HELICOPTER TRNG FLTS USE LEFT-TFC FOR RWY 30, AND RIGHT-TFC FOR RWY 12. HELICOPTER TPA 805(800).

Instrument Procedures

NOTE: All procedures below are presented as PDF files. If you need a reader for these files, you should download the free Adobe Reader.

NOT FOR NAVIGATION. Please procure official charts for flight.
FAA instrument procedures published for use from 19 July 2018 at 0901Z to 16 August 2018 at 0900Z.

 
STARs - Standard Terminal Arrivals
POINT REYES THREE   download (229KB)
POINT REYES THREE   download (229KB)
 
IAPs - Instrument Approach Procedures
RNAV (GPS) Y RWY 30   download (302KB)
RNAV (GPS) Z RWY 30   download (312KB)
NOTE: Special Alternate Minimums apply   download (59KB)
NOTE: Special Take-Off Minimums/Departure Procedures apply **CHANGED**   download (211KB)

Other nearby airports with instrument procedures:

KPAO - Palo Alto Airport (7 nm SE)
KSFO - San Francisco International Airport (9 nm NW)
KHWD - Hayward Executive Airport (11 nm NE)
KNUQ - Moffett Federal Airfield (11 nm SE)
KHAF - Half Moon Bay Airport (12 nm W)
KOAK - Metropolitan Oakland International Airport (13 nm N)
KSJC - Norman Y Mineta San Jose International Airport (18 nm SE)
 
Loc | Ops | Rwys | IFR | FBO | Links
Com | Nav | Svcs | Stats | Notes

Peninsula Avionics
 
Area around KSQL (San Carlos Airport)
 
Road maps at: MapQuest Bing Google
 
Aerial photo
WARNING: Photo may not be current or correct
Aerial photo of KSQL (San Carlos Airport)
Photo by Chris Leipelt
Photo taken 30-Dec-2015
looking east.

Do you have a better or more recent aerial photo of San Carlos Airport that you would like to share? If so, please send us your photo.

 
Sectional chart

 
Airport diagram
Diagram of KSQL (San Carlos Airport)
Download PDF
of official airport diagram from the FAA

 
Airport distance calculator
Flying to San Carlos Airport? Find the distance to fly.

From to KSQL

Sunrise and sunset
Times for 22-Jul-2018
 Local
(UTC-7)
 Zulu
(UTC)
Morning civil twilight05:3612:36
Sunrise06:0613:06
Sunset20:2503:25
Evening civil twilight20:5503:55

Current date and time
Zulu (UTC)  22-Jul-2018 14:47:11
Local (UTC-7)  22-Jul-2018 07:47:11
 
METAR
KSQL 221400Z AUTO 01004KT 10SM OVC016 17/14 A3007 RMK AO2
KPAO 
7nm SE 
221347Z VRB06KT 10SM BKN016 18/15 A3008
KSFO 
8nm NW 
221356Z 27008KT 10SM FEW007 BKN015 BKN018 16/13 A3007 RMK AO2 SLP182 T01610133 $
KHWD 
11nm NE 
221354Z 32004KT 10SM OVC010 17/14 A3007 RMK AO2 SLP192 T01720139
KOAK 
11nm N 
221353Z 29009KT 10SM BKN010 OVC012 16/14 A3008 RMK AO2 SLP184 T01610144
KNUQ 
12nm SE 
221356Z 01005KT 10SM OVC012 17/16 A3008 RMK AO2 SLP187 T01670156
KHAF 
12nm W 
221440Z AUTO 18004KT 7SM OVC005 15/14 A3010 RMK AO2
KSJC 
18nm SE 
221353Z 13004KT 10SM FEW001 SCT017 18/14 A3007 RMK AO2 SLP181 T01830144
TAF
KSFO 
8nm NW 
221127Z 2212/2318 28008KT P6SM BKN012 FM221620 27005KT P6SM FEW010 FM222000 31013KT P6SM SCT200 FM222300 28017KT P6SM FEW008 SCT200 FM230300 28013KT P6SM SCT010 FM231000 28008KT P6SM BKN010 FM231700 27005KT P6SM SCT010
KOAK 
11nm N 
221425Z 2214/2318 29008KT P6SM BKN010 OVC012 FM221700 28008KT P6SM SCT010 FM222000 29013KT P6SM SCT200 FM230500 29008KT P6SM BKN010 FM231000 28006KT P6SM OVC007 FM231700 27005KT P6SM SCT010
KSJC 
18nm SE 
221158Z 2212/2312 VRB03KT P6SM SCT013 TEMPO 2212/2215 BKN012 FM221500 VRB03KT P6SM FEW010 FM222000 32012KT P6SM SCT200 FM230400 31008KT P6SM FEW010
NOTAMs
Click for the latest NOTAMs
NOTAMs are issued by the DoD/FAA and will open in a separate window not controlled by AirNav.

 

 
 

FBO, Fuel Providers, and Aircraft Ground Support

  
 Business Name 
 
 Contact 
 
 Services / Description 
 
Fuel Prices
 
Comments
  
Rabbit Aviation Services 650-591-5857
650-716-6579
[web site]
[email]
Aviation fuel, Aircraft ground handling, GPU / Power cart, Aircraft cleaning / washing / detailing, Rental cars on site

More info about Rabbit Aviation Services
independent
100LL Jet A
FS $5.35 $4.50 
GUARANTEED
 
   7 read write
FS=Full service
Update Fuel Prices
 

Aviation Businesses, Services, and Facilities

  
 Business Name 
 
 Contact 
 
 Services / Description 
 
Distance
 
Comments
  
AirplanesUSA Aircraft Sales 650-394-7610
847-331-3133
[web site]
[email]
Aircraft sales / leasing / brokerage
More info and photos of AirplanesUSA Aircraft Sales
on airport  
   write
San Carlos Aviation and Supply 650-592-2322
[web site]
[email]
Oxygen service, Passenger terminal and lounge, Aircraft charters, Aviation accessories, Pilot supplies, Rental cars on site, Courtesy transportation, Internet access, ...

More info about San Carlos Aviation and Supply
on airport  
   4 read write
 San Carlos Flight Center
650-946-1700
[web site]
[email]
Flight training, Aircraft rental, Aerial tours / aerial sightseeing, Flying club, Internet access, Restrooms

More info about San Carlos Flight Center
on airport  
   write
West Valley Flying Club 650-856-2030
[web site]
Flight training, Aircraft rental, Pilot supplies, Flying club

More info about West Valley Flying Club
on airport  
   write
Diamond Aviation 650-591-7611
no information available

If you are affiliated with Diamond Aviation and would like to show here your services, contact info, web link, logo, and more, click here
on airport  
   write
 

Where to Eat: Catering, Restaurants, Food shops

  
 Business Name 
 
 Contact 
 
 Services / Description 
 
Distance
 
Comments
  
Burger King 650-596-5610
no information available

If you are affiliated with Burger King and would like to show here your services, contact info, web link, logo, and more, click here
on airport  
   write
Sky Kitchen 650-595-0464
no information available

If you are affiliated with Sky Kitchen and would like to show here your services, contact info, web link, logo, and more, click here
on airport  
   2 read write
 

Things to do: Attractions on or near the airport

  
 Business Name 
 
 Contact 
 
 Services / Description 
 
Distance
 
Comments
  
Hiller Aviation Museum 650-654-0200
no information available

If you are affiliated with Hiller Aviation Museum and would like to show here your services, contact info, web link, logo, and more, click here
on airport  
   1 read write
 

Would you like to see your business listed on this page?

 If your business provides an interesting product or service to pilots, flight crews, aircraft, or users of the San Carlos Airport, you should consider listing it here.  To start the listing process, click on the button below
 
Add a business
 

Other Pages about San Carlos Airport

publicworks.smcgov.org/san-carlos-airport
www.sancarlospilots.org
 
Update a link
 
Copyright © AirNav, LLC. All rights reserved. Privacy Policy  Contact